Time;durP1;ratioP1;P1;durP2;ratioP2;P2;SDS_P1;SDS_P2;PMS_P1;PMS_P2;Temp;Humidity;BMP_temperature;BMP_pressure;BME280_temperature;BME280_humidity;BME280_pressure;Samples;Min_cycle;Max_cycle;Signal;HPM_P1;HPM_P2
2021/11/02 16:30:34;;;;;;;3.80;3.30;;;7.80;99.90;;;;;;6177772;22;20442;-93
2021/11/02 16:32:59;;;;;;;2.43;2.30;;;7.70;99.90;;;;;;6205892;23;20430;-90
2021/11/02 16:35:37;;;;;;;5.20;4.70;;;7.70;99.90;;;;;;6206519;23;20430;-90
2021/11/02 16:38:25;;;;;;;4.00;3.70;;;7.70;99.90;;;;;;6206673;23;20402;-90
2021/11/02 16:41:22;;;;;;;3.07;2.87;;;7.70;99.90;;;;;;6210752;23;20456;-90
2021/11/02 16:43:53;;;;;;;2.60;2.40;;;7.60;99.90;;;;;;6211447;23;20512;-91
2021/11/02 16:46:30;;;;;;;2.03;1.90;;;7.60;99.90;;;;;;6206329;23;20398;-91
2021/11/02 16:49:33;;;;;;;4.23;3.83;;;7.50;99.90;;;;;;6208246;23;20390;-91
2021/11/02 16:52:08;;;;;;;3.50;3.20;;;7.50;99.90;;;;;;6205495;23;20469;-92
2021/11/02 16:54:42;;;;;;;4.20;3.80;;;7.50;99.90;;;;;;6204180;23;20405;-91
2021/11/02 16:57:21;;;;;;;6.17;4.47;;;7.50;99.90;;;;;;6208800;23;20404;-91
2021/11/02 17:00:09;;;;;;;3.13;2.80;;;7.50;99.90;;;;;;6201612;23;20413;-91
2021/11/02 17:02:40;;;;;;;3.20;2.83;;;7.40;99.90;;;;;;6203865;23;20438;-90
2021/11/02 17:05:19;;;;;;;4.63;4.07;;;7.50;99.90;;;;;;6204164;23;20754;-90
2021/11/02 17:08:28;;;;;;;;;;;;;;;;;;;;;
2021/11/02 17:11:11;;;;;;;5.13;4.60;;;7.30;99.90;;;;;;6206093;23;20446;-91
2021/11/02 17:13:42;;;;;;;5.83;4.50;;;7.20;99.90;;;;;;6207660;23;20839;-91
2021/11/02 17:16:27;;;;;;;6.13;5.53;;;7.30;99.90;;;;;;6179114;23;20437;-91
2021/11/02 17:19:16;;;;;;;;;;;;;;;;;;;;;
2021/11/02 17:21:56;;;;;;;;;;;;;;;;;;;;;
2021/11/02 17:24:30;;;;;;;14.50;13.10;;;7.40;99.90;;;;;;6198634;23;20393;-91
2021/11/02 17:26:56;;;;;;;11.33;10.40;;;7.40;99.90;;;;;;6203275;23;20409;-91
2021/11/02 17:30:16;;;;;;;;;;;;;;;;;;;;;
2021/11/02 17:32:53;;;;;;;;;;;;;;;;;;;;;
2021/11/02 17:36:42;;;;;;;7.47;6.77;;;7.40;99.90;;;;;;6125427;23;20719;-85
2021/11/02 17:39:35;;;;;;;9.03;8.13;;;7.40;99.90;;;;;;6148287;23;20392;-86
2021/11/02 17:42:53;;;;;;;16.77;12.77;;;7.30;99.90;;;;;;6200549;23;20444;-85
2021/11/02 17:46:12;;;;;;;;;;;;;;;;;;;;;
2021/11/02 17:48:51;;;;;;;11.07;9.27;;;7.30;99.90;;;;;;6204483;23;20461;-84
2021/11/02 17:51:50;;;;;;;13.37;10.63;;;7.50;99.90;;;;;;6177208;23;20393;-85
2021/11/02 17:54:37;;;;;;;14.40;11.50;;;7.50;99.90;;;;;;6175780;23;20398;-85
2021/11/02 17:57:03;;;;;;;12.03;10.37;;;7.60;99.90;;;;;;6181187;23;20611;-84
2021/11/02 17:59:33;;;;;;;10.60;9.50;;;7.60;99.90;;;;;;6176809;23;20406;-84
2021/11/02 18:02:03;;;;;;;8.97;8.17;;;7.60;99.90;;;;;;6176552;23;20844;-85
2021/11/02 18:04:37;;;;;;;6.67;5.93;;;7.50;99.90;;;;;;6176627;23;20927;-85
2021/11/02 18:07:13;;;;;;;4.93;4.53;;;7.50;99.90;;;;;;6180696;23;21203;-85
2021/11/02 18:09:46;;;;;;;7.87;7.10;;;7.30;99.90;;;;;;6178883;23;20409;-86
2021/11/02 18:12:19;;;;;;;9.83;8.90;;;7.20;99.90;;;;;;6181549;23;20406;-85
2021/11/02 18:14:48;;;;;;;6.50;5.90;;;7.10;99.90;;;;;;6178858;23;20895;-85
2021/11/02 18:17:30;;;;;;;6.17;5.70;;;7.10;99.90;;;;;;6178203;23;20461;-85
2021/11/02 18:20:09;;;;;;;4.50;4.07;;;7.00;99.90;;;;;;6175159;23;20535;-85
2021/11/02 18:22:40;;;;;;;9.03;8.13;;;7.00;99.90;;;;;;6176593;23;20562;-85
2021/11/02 18:25:19;;;;;;;23.43;16.93;;;7.00;99.90;;;;;;6177270;23;20386;-85
2021/11/02 18:27:49;;;;;;;5.70;5.30;;;6.90;99.90;;;;;;6178780;23;20403;-86
2021/11/02 18:30:17;;;;;;;12.70;11.00;;;6.90;99.90;;;;;;6177060;23;20395;-85
2021/11/02 18:33:06;;;;;;;30.67;27.10;;;6.90;99.90;;;;;;6197961;23;20990;-86
2021/11/02 18:35:43;;;;;;;29.13;24.27;;;6.80;99.90;;;;;;6176048;23;20390;-84
2021/11/02 18:38:13;;;;;;;15.63;14.03;;;6.90;99.90;;;;;;6178268;23;20887;-84
2021/11/02 18:40:39;;;;;;;7.67;6.67;;;6.80;99.90;;;;;;6179027;23;20438;-85
2021/11/02 18:43:39;;;;;;;6.20;5.60;;;6.90;99.90;;;;;;6177567;23;20434;-86
2021/11/02 18:46:25;;;;;;;5.80;5.23;;;6.90;99.90;;;;;;6203046;23;20487;-85
2021/11/02 18:48:51;;;;;;;6.40;5.50;;;6.80;99.90;;;;;;6188146;23;20426;-86
2021/11/02 18:51:50;;;;;;;17.10;15.37;;;6.80;99.90;;;;;;6179270;23;20601;-86
2021/11/02 18:54:21;;;;;;;7.20;5.93;;;6.80;99.90;;;;;;6181907;23;20388;-85
2021/11/02 18:56:49;;;;;;;8.47;7.53;;;6.70;99.90;;;;;;6182637;23;20733;-86
2021/11/02 18:59:19;;;;;;;9.60;6.80;;;6.60;99.90;;;;;;6180143;23;20814;-86
2021/11/02 19:01:57;;;;;;;9.30;7.60;;;6.40;99.90;;;;;;6182183;23;20471;-86
2021/11/02 19:04:44;;;;;;;;;;;;;;;;;;;;;
2021/11/02 19:07:16;;;;;;;14.10;8.33;;;6.40;99.90;;;;;;6206923;23;20493;-87
2021/11/02 19:09:44;;;;;;;12.57;7.67;;;6.40;99.90;;;;;;6180187;23;20957;-86
2021/11/02 19:12:18;;;;;;;12.47;8.70;;;6.40;99.90;;;;;;6181754;23;20492;-86
2021/11/02 19:14:52;;;;;;;11.33;8.57;;;6.30;99.90;;;;;;6179664;23;20402;-86
2021/11/02 19:17:29;;;;;;;10.60;7.73;;;6.10;99.90;;;;;;6179148;23;20399;-87
2021/11/02 19:20:07;;;;;;;;;;;;;;;;;;;;;
2021/11/02 19:22:43;;;;;;;6.20;5.40;;;6.00;99.90;;;;;;6207931;23;20439;-87
2021/11/02 19:25:09;;;;;;;5.50;5.00;;;5.90;99.90;;;;;;6185459;23;20442;-86
2021/11/02 19:27:37;;;;;;;6.43;5.83;;;5.80;99.90;;;;;;6182800;23;20419;-86
2021/11/02 19:30:09;;;;;;;32.70;28.47;;;5.60;99.90;;;;;;6182303;23;20167;-86
2021/11/02 19:32:55;;;;;;;;;;;;;;;;;;;;;
2021/11/02 19:35:40;;;;;;;19.70;17.47;;;5.70;99.90;;;;;;6209237;23;20470;-87
2021/11/02 19:38:12;;;;;;;20.17;18.03;;;5.70;99.90;;;;;;6183205;23;20458;-86
2021/11/02 19:40:49;;;;;;;11.53;9.07;;;5.80;99.90;;;;;;6183396;23;20398;-86
2021/11/02 19:43:19;;;;;;;8.20;7.40;;;5.70;99.90;;;;;;6182168;23;20447;-86
2021/11/02 19:45:54;;;;;;;7.80;7.00;;;5.70;99.90;;;;;;6207305;23;20396;-87
2021/11/02 19:48:20;;;;;;;12.17;10.90;;;5.80;99.90;;;;;;6182900;23;20399;-86
2021/11/02 19:50:49;;;;;;;13.63;12.20;;;5.90;99.90;;;;;;6182268;23;20401;-86
2021/11/02 19:53:30;;;;;;;6.77;6.13;;;6.20;99.90;;;;;;6182621;23;20398;-89
2021/11/02 19:55:57;;;;;;;8.50;6.70;;;6.40;99.90;;;;;;6180407;23;20407;-88
2021/11/02 19:58:45;;;;;;;4.97;4.20;;;6.50;99.90;;;;;;6180485;23;20397;-88
2021/11/02 20:01:19;;;;;;;5.70;4.77;;;6.60;99.90;;;;;;6179368;23;20497;-91
2021/11/02 20:03:49;;;;;;;5.90;5.37;;;6.60;99.90;;;;;;6183100;23;20602;-92
2021/11/02 20:06:40;;;;;;;7.17;6.47;;;6.60;99.90;;;;;;6181750;23;20805;-90
2021/11/02 20:09:10;;;;;;;6.90;6.20;;;6.70;99.90;;;;;;6185055;23;20441;-92
2021/11/02 20:11:50;;;;;;;5.93;5.37;;;6.70;99.90;;;;;;6179695;23;20394;-91
2021/11/02 20:14:22;;;;;;;6.20;5.20;;;6.70;99.90;;;;;;6179436;23;20398;-90
2021/11/02 20:17:08;;;;;;;;;;;;;;;;;;;;;
2021/11/02 20:19:47;;;;;;;7.27;6.57;;;6.70;99.90;;;;;;6210621;23;20952;-93
2021/11/02 20:22:15;;;;;;;8.10;6.80;;;6.80;99.90;;;;;;6208720;23;20445;-93
2021/11/02 20:24:41;;;;;;;6.53;5.80;;;6.70;99.90;;;;;;6180478;23;20881;-85
2021/11/02 20:27:15;;;;;;;5.97;5.10;;;6.70;99.90;;;;;;6177667;23;20502;-85
2021/11/02 20:29:41;;;;;;;6.67;5.30;;;6.80;99.90;;;;;;6176430;23;20167;-86
2021/11/02 20:32:08;;;;;;;7.80;6.90;;;6.80;99.90;;;;;;6190019;23;20415;-85
2021/11/02 20:34:34;;;;;;;9.50;5.70;;;6.70;99.90;;;;;;6203896;23;20198;-85
2021/11/02 20:37:06;;;;;;;5.50;5.00;;;6.70;99.90;;;;;;6202485;23;20395;-85
2021/11/02 20:39:46;;;;;;;8.13;6.60;;;6.70;99.90;;;;;;6202770;23;20564;-84
2021/11/02 20:42:14;;;;;;;10.13;9.00;;;6.60;99.90;;;;;;6202330;23;20504;-85
2021/11/02 20:44:53;;;;;;;10.17;9.17;;;6.50;99.90;;;;;;6205216;23;20870;-84
2021/11/02 20:47:20;;;;;;;12.73;10.80;;;6.40;99.90;;;;;;6203145;23;20479;-84
2021/11/02 20:49:57;;;;;;;10.77;9.07;;;6.40;99.90;;;;;;6202491;23;20387;-86
2021/11/02 20:52:24;;;;;;;6.57;5.93;;;6.30;99.90;;;;;;6204982;23;20404;-85
2021/11/02 20:54:51;;;;;;;8.57;6.27;;;6.10;99.90;;;;;;6203340;23;20390;-85
2021/11/02 20:57:21;;;;;;;6.83;6.23;;;6.00;99.90;;;;;;6206581;23;20405;-85
2021/11/02 20:59:48;;;;;;;8.03;6.03;;;5.90;99.90;;;;;;6204026;23;20391;-84
2021/11/02 21:02:19;;;;;;;6.30;5.70;;;5.70;99.90;;;;;;6203472;23;20521;-85
2021/11/02 21:04:46;;;;;;;5.73;5.23;;;5.60;99.90;;;;;;6201902;23;20453;-89
2021/11/02 21:07:34;;;;;;;5.60;5.10;;;5.50;99.90;;;;;;6203188;23;20467;-89
2021/11/02 21:10:16;;;;;;;6.00;5.50;;;5.40;99.90;;;;;;6177839;23;20481;-89
2021/11/02 21:12:59;;;;;;;5.93;5.33;;;5.30;99.90;;;;;;6210328;23;20942;-89
2021/11/02 21:15:28;;;;;;;5.63;5.10;;;5.30;99.90;;;;;;6113653;23;20395;-90
2021/11/02 21:18:06;;;;;;;7.53;5.70;;;5.30;99.90;;;;;;6206539;23;20850;-90
2021/11/02 21:20:51;;;;;;;6.03;5.53;;;5.30;99.90;;;;;;6202740;23;20536;-89
2021/11/02 21:23:52;;;;;;;4.60;4.20;;;5.20;99.90;;;;;;6203411;23;20422;-89
2021/11/02 21:26:33;;;;;;;4.13;3.73;;;5.20;99.90;;;;;;6203354;23;20506;-91
2021/11/02 21:29:01;;;;;;;4.57;4.17;;;5.10;99.90;;;;;;6181480;23;20501;-88
2021/11/02 21:31:29;;;;;;;5.80;5.30;;;5.00;99.90;;;;;;6202403;23;20417;-87
2021/11/02 21:34:00;;;;;;;14.50;9.57;;;5.00;99.90;;;;;;6202399;23;20510;-87
2021/11/02 21:36:34;;;;;;;13.00;8.33;;;5.00;99.90;;;;;;6201197;23;20409;-87
2021/11/02 21:39:04;;;;;;;12.67;8.80;;;5.00;99.90;;;;;;6196854;23;20608;-86
2021/11/02 21:41:44;;;;;;;8.90;6.67;;;5.00;99.90;;;;;;6201886;23;20438;-87
2021/11/02 21:44:22;;;;;;;5.63;4.93;;;5.00;99.90;;;;;;6199980;23;20423;-87
2021/11/02 21:46:53;;;;;;;3.73;3.37;;;5.00;99.90;;;;;;6202288;23;20413;-87
2021/11/02 21:49:46;;;;;;;;;;;;;;;;;;;;;
2021/11/02 21:52:20;;;;;;;2.90;2.70;;;4.80;99.90;;;;;;6204612;23;20782;-86
2021/11/02 21:54:48;;;;;;;2.80;2.60;;;4.80;99.90;;;;;;6200984;23;20959;-87
2021/11/02 21:57:23;;;;;;;2.90;2.40;;;4.80;99.90;;;;;;6201665;23;20461;-87
2021/11/02 21:59:52;;;;;;;2.57;2.37;;;4.70;99.90;;;;;;6202350;23;20397;-88
2021/11/02 22:02:38;;;;;;;;;;;;;;;;;;;;;
2021/11/02 22:05:08;;;;;;;3.27;2.97;;;4.70;99.90;;;;;;6202887;23;20468;-87
2021/11/02 22:07:34;;;;;;;3.00;2.43;;;4.60;99.90;;;;;;6202503;23;20401;-87
2021/11/02 22:10:03;;;;;;;3.30;3.00;;;4.40;99.90;;;;;;6200230;23;20775;-87
2021/11/02 22:12:31;;;;;;;2.60;2.50;;;4.40;99.90;;;;;;6200649;23;20472;-87
2021/11/02 22:15:04;;;;;;;3.40;3.10;;;4.40;99.90;;;;;;6200748;23;20457;-87
2021/11/02 22:17:30;;;;;;;2.70;2.43;;;4.40;99.90;;;;;;6201451;23;20821;-89
2021/11/02 22:19:56;;;;;;;2.73;2.17;;;4.40;99.90;;;;;;6200617;23;20402;-89
2021/11/02 22:22:26;;;;;;;4.80;4.13;;;4.40;99.90;;;;;;6201886;23;20478;-88
2021/11/02 22:25:13;;;;;;;2.70;2.50;;;4.40;99.90;;;;;;6202713;23;20421;-88
2021/11/02 22:27:53;;;;;;;2.70;2.50;;;4.40;99.90;;;;;;6201666;23;20868;-88
2021/11/02 22:30:39;;;;;;;3.57;2.83;;;4.20;99.90;;;;;;6199068;23;20401;-89
2021/11/02 22:33:10;;;;;;;3.40;3.10;;;4.20;99.90;;;;;;6206060;23;20482;-89
2021/11/02 22:35:44;;;;;;;3.60;3.30;;;4.20;99.90;;;;;;6181651;23;20536;-88
2021/11/02 22:38:18;;;;;;;7.57;6.37;;;4.20;99.90;;;;;;6183027;23;20406;-89
2021/11/02 22:40:51;;;;;;;5.50;5.00;;;4.20;99.90;;;;;;6207905;23;20403;-88
2021/11/02 22:43:33;;;;;;;5.70;4.63;;;4.20;99.90;;;;;;6212897;23;20528;-88
2021/11/02 22:46:16;;;;;;;4.50;4.10;;;4.20;99.90;;;;;;6232847;23;20445;-89
2021/11/02 22:48:53;;;;;;;5.83;4.37;;;4.20;99.90;;;;;;6231593;23;20876;-88
2021/11/02 22:51:27;;;;;;;5.50;4.30;;;4.30;99.90;;;;;;6233638;23;20445;-88
2021/11/02 22:54:02;;;;;;;4.83;4.37;;;4.30;99.90;;;;;;6179942;23;20922;-88
2021/11/02 22:56:30;;;;;;;6.10;5.50;;;4.40;99.90;;;;;;6209010;23;20430;-89
2021/11/02 22:59:00;;;;;;;7.00;6.30;;;4.40;99.90;;;;;;6211144;23;20449;-89
2021/11/02 23:01:35;;;;;;;;;;;;;;;;;;;;;
2021/11/02 23:04:12;;;;;;;;;;;;;;;;;;;;;
2021/11/02 23:06:48;;;;;;;7.37;6.60;;;4.40;99.90;;;;;;6234710;23;20404;-89
2021/11/02 23:09:37;;;;;;;8.13;6.23;;;4.40;99.90;;;;;;6206876;23;20441;-89
2021/11/02 23:12:34;;;;;;;;;;;;;;;;;;;;;
2021/11/02 23:15:02;;;;;;;6.70;5.90;;;4.40;99.90;;;;;;6236632;23;20479;-89
2021/11/02 23:17:28;;;;;;;5.63;4.70;;;4.50;99.90;;;;;;6209347;23;20894;-89
2021/11/02 23:19:57;;;;;;;5.40;5.00;;;4.40;99.90;;;;;;6209101;23;20404;-89
2021/11/02 23:22:40;;;;;;;5.73;5.27;;;4.40;99.90;;;;;;6232438;23;20684;-88
2021/11/02 23:25:33;;;;;;;7.63;5.63;;;4.30;99.90;;;;;;6205463;23;20463;-89
2021/11/02 23:28:02;;;;;;;6.43;5.53;;;4.20;99.90;;;;;;6208375;23;20780;-89
2021/11/02 23:30:44;;;;;;;6.23;5.63;;;4.20;99.90;;;;;;6208274;23;20855;-89
2021/11/02 23:33:14;;;;;;;6.80;6.03;;;4.40;99.90;;;;;;6203036;23;20407;-88
2021/11/02 23:35:47;;;;;;;6.70;6.00;;;4.40;99.90;;;;;;6203782;23;20394;-89
2021/11/02 23:38:38;;;;;;;6.37;5.77;;;4.50;99.90;;;;;;6205363;23;20735;-89
2021/11/02 23:41:28;;;;;;;;;;;;;;;;;;;;;
2021/11/02 23:44:00;;;;;;;8.17;6.40;;;4.50;99.90;;;;;;6205375;23;20491;-89
2021/11/02 23:46:43;;;;;;;;;;;;;;;;;;;;;
2021/11/02 23:49:17;;;;;;;8.90;5.53;;;4.40;99.90;;;;;;6205499;23;20402;-89
2021/11/02 23:51:45;;;;;;;6.40;5.80;;;4.50;99.90;;;;;;6204628;23;20393;-89
2021/11/02 23:54:23;;;;;;;7.27;6.67;;;4.60;99.90;;;;;;6202652;23;20386;-88
2021/11/02 23:56:49;;;;;;;6.70;6.00;;;4.60;99.90;;;;;;6179103;23;20902;-88
2021/11/02 23:59:15;;;;;;;6.90;6.30;;;4.80;99.90;;;;;;6203667;23;20386;-88
